Time;durP1;ratioP1;P1;durP2;ratioP2;P2;SDS_P1;SDS_P2;PMS_P1;PMS_P2;Temp;Humidity;BMP_temperature;BMP_pressure;BME280_temperature;BME280_humidity;BME280_pressure;Samples;Min_cycle;Max_cycle;Signal;HPM_P1;HPM_P2
2022/05/04 00:01:54;;;;;;;;;;;11.60;99.90;;;;;;5074691;28;19916;-78
2022/05/04 00:04:20;;;;;;;;;;;11.40;99.90;;;;;;5074443;28;19950;-76
2022/05/04 00:06:46;;;;;;;;;;;11.40;99.90;;;;;;5074391;28;19908;-78
2022/05/04 00:09:11;;;;;;;;;;;11.60;99.90;;;;;;5056358;28;19947;-79
2022/05/04 00:11:37;;;;;;;;;;;11.60;99.90;;;;;;5074138;28;20377;-79
2022/05/04 00:14:02;;;;;;;;;;;11.70;99.90;;;;;;5074605;28;19909;-77
2022/05/04 00:16:28;;;;;;;;;;;11.60;99.90;;;;;;5074279;28;19940;-79
2022/05/04 00:18:54;;;;;;;;;;;11.60;99.90;;;;;;5056190;28;19912;-78
2022/05/04 00:21:19;;;;;;;;;;;11.60;99.90;;;;;;5074104;28;19910;-79
2022/05/04 00:23:45;;;;;;;;;;;11.50;99.90;;;;;;5074004;28;20351;-79
2022/05/04 00:26:10;;;;;;;;;;;11.40;99.90;;;;;;5073994;28;19912;-78
2022/05/04 00:28:36;;;;;;;;;;;11.50;99.90;;;;;;5073115;28;19912;-78
2022/05/04 00:31:01;;;;;;;;;;;11.50;99.90;;;;;;5074030;28;19910;-77
2022/05/04 00:33:27;;;;;;;;;;;11.50;99.90;;;;;;5073978;28;19998;-76
2022/05/04 00:35:53;;;;;;;;;;;11.40;99.90;;;;;;5055931;28;19912;-77
2022/05/04 00:38:18;;;;;;;;;;;11.60;99.90;;;;;;5055712;28;19955;-78
2022/05/04 00:40:44;;;;;;;;;;;11.40;99.90;;;;;;5073811;28;20352;-80
2022/05/04 00:43:19;;;;;;;;;;;11.30;99.90;;;;;;5073759;28;19908;-78
2022/05/04 00:45:45;;;;;;;;;;;11.20;99.90;;;;;;5073777;28;19995;-79
2022/05/04 00:48:10;;;;;;;;;;;11.30;99.90;;;;;;5073689;28;19944;-78
2022/05/04 00:50:36;;;;;;;;;;;11.50;99.90;;;;;;5073689;28;19909;-78
2022/05/04 00:53:02;;;;;;;;;;;11.40;99.90;;;;;;5073703;28;19972;-79
2022/05/04 00:55:28;;;;;;;;;;;11.40;99.90;;;;;;5073633;28;19930;-78
2022/05/04 01:00:38;;;;;;;;;;;11.10;99.90;;;;;;5073748;28;19910;-78
2022/05/04 01:03:04;;;;;;;;;;;11.00;99.90;;;;;;5073539;28;19908;-80
2022/05/04 01:05:29;;;;;;;;;;;10.90;99.90;;;;;;5073547;28;19904;-79
2022/05/04 01:07:55;;;;;;;;;;;10.50;99.90;;;;;;5055520;28;19908;-78
2022/05/04 01:10:20;;;;;;;;;;;10.30;99.90;;;;;;5073534;28;20065;-79
2022/05/04 01:12:50;;;;;;;;;;;10.20;99.90;;;;;;5055518;28;19905;-78
2022/05/04 01:15:16;;;;;;;;;;;9.90;99.90;;;;;;5055496;28;19904;-79
2022/05/04 01:17:42;;;;;;;;;;;9.80;99.90;;;;;;5055453;28;20284;-77
2022/05/04 01:20:08;;;;;;;;;;;9.80;99.90;;;;;;5055434;28;19905;-77
2022/05/04 01:22:34;;;;;;;;;;;10.20;99.90;;;;;;5073471;28;19919;-80
2022/05/04 01:24:59;;;;;;;;;;;10.60;99.90;;;;;;5073496;28;19904;-79
2022/05/04 01:27:26;;;;;;;;;;;10.80;99.90;;;;;;5055369;28;19904;-78
2022/05/04 01:29:51;;;;;;;;;;;10.90;99.90;;;;;;5073368;28;20288;-78
2022/05/04 01:32:17;;;;;;;;;;;11.00;99.90;;;;;;5073338;28;19999;-78
2022/05/04 01:34:42;;;;;;;;;;;10.80;99.90;;;;;;5073648;28;19908;-79
2022/05/04 01:37:08;;;;;;;;;;;10.80;99.90;;;;;;5073071;28;19962;-78
2022/05/04 01:39:33;;;;;;;;;;;10.70;99.90;;;;;;5073411;28;19904;-78
2022/05/04 01:42:16;;;;;;;;;;;10.60;99.90;;;;;;5077048;28;19916;-79
2022/05/04 01:44:43;;;;;;;;;;;10.70;99.90;;;;;;5058799;28;19904;-76
2022/05/04 01:47:08;;;;;;;;;;;10.60;99.90;;;;;;5059065;28;19999;-80
2022/05/04 01:49:34;;;;;;;;;;;10.50;99.90;;;;;;5076983;28;19949;-77
2022/05/04 01:52:00;;;;;;;;;;;10.50;99.90;;;;;;5077353;28;19904;-78
2022/05/04 01:54:25;;;;;;;;;;;10.60;99.90;;;;;;5076868;28;19904;-79
2022/05/04 01:56:51;;;;;;;;;;;10.50;99.90;;;;;;5058917;28;19912;-77
2022/05/04 01:59:16;;;;;;;;;;;10.40;99.90;;;;;;5076801;28;19911;-77
2022/05/04 02:01:43;;;;;;;;;;;10.40;99.90;;;;;;5076648;28;20392;-79
2022/05/04 02:04:08;;;;;;;;;;;10.40;99.90;;;;;;5058678;28;19947;-77
2022/05/04 02:06:35;;;;;;;;;;;10.40;99.90;;;;;;5076630;28;20341;-78
2022/05/04 02:09:01;;;;;;;;;;;10.40;99.90;;;;;;5076588;28;20434;-78
2022/05/04 02:11:28;;;;;;;;;;;10.30;99.90;;;;;;5058565;28;19904;-78
2022/05/04 02:13:54;;;;;;;;;;;10.20;99.90;;;;;;5076506;28;20372;-76
2022/05/04 02:16:19;;;;;;;;;;;10.20;99.90;;;;;;5076646;28;19948;-77
2022/05/04 02:18:45;;;;;;;;;;;10.00;99.90;;;;;;5076567;28;19904;-78
2022/05/04 02:21:11;;;;;;;;;;;10.10;99.90;;;;;;5076379;28;19904;-79
2022/05/04 02:23:36;;;;;;;;;;;10.40;99.90;;;;;;5076322;28;19908;-78
2022/05/04 02:26:02;;;;;;;;;;;10.40;99.90;;;;;;5076285;28;19908;-77
2022/05/04 02:28:28;;;;;;;;;;;10.30;99.90;;;;;;5076262;28;19957;-78
2022/05/04 02:30:53;;;;;;;;;;;10.00;99.90;;;;;;5076519;28;19983;-77
2022/05/04 02:33:19;;;;;;;;;;;9.70;99.90;;;;;;5076164;28;20413;-80
2022/05/04 02:38:28;;;;;;;;;;;9.90;99.90;;;;;;5075896;28;19923;-79
2022/05/04 02:40:54;;;;;;;;;;;10.20;99.90;;;;;;5058069;28;19904;-79
2022/05/04 02:43:19;;;;;;;;;;;10.20;99.90;;;;;;5075904;28;19951;-77
2022/05/04 02:45:45;;;;;;;;;;;10.30;99.90;;;;;;5075951;28;19912;-79
2022/05/04 02:48:11;;;;;;;;;;;10.10;99.90;;;;;;5075908;28;19904;-78
2022/05/04 02:50:36;;;;;;;;;;;10.10;99.90;;;;;;5076054;28;20261;-78
2022/05/04 02:53:02;;;;;;;;;;;10.00;99.90;;;;;;5074839;28;19911;-75
2022/05/04 02:55:28;;;;;;;;;;;10.10;99.90;;;;;;5075372;28;19909;-77
2022/05/04 02:57:53;;;;;;;;;;;10.10;99.90;;;;;;5075769;28;19943;-79
2022/05/04 03:00:19;;;;;;;;;;;10.00;99.90;;;;;;5075608;28;19905;-77
2022/05/04 03:02:45;;;;;;;;;;;10.00;99.90;;;;;;5057551;28;19916;-78
2022/05/04 03:05:11;;;;;;;;;;;10.10;99.90;;;;;;5075742;28;19904;-78
2022/05/04 03:07:37;;;;;;;;;;;9.90;99.90;;;;;;5075509;28;20288;-79
2022/05/04 03:10:03;;;;;;;;;;;9.80;99.90;;;;;;5075629;28;19988;-79
2022/05/04 03:12:29;;;;;;;;;;;9.60;99.90;;;;;;5075803;28;19905;-78
2022/05/04 03:14:54;;;;;;;;;;;9.30;99.90;;;;;;5075644;28;19915;-78
2022/05/04 03:17:20;;;;;;;;;;;9.00;99.90;;;;;;5075461;28;20378;-79
2022/05/04 03:19:46;;;;;;;;;;;9.20;99.90;;;;;;5075317;28;19908;-78
2022/05/04 03:22:11;;;;;;;;;;;9.30;99.90;;;;;;5075201;28;19908;-77
2022/05/04 03:24:38;;;;;;;;;;;9.30;99.90;;;;;;5075183;28;20393;-79
2022/05/04 03:27:04;;;;;;;;;;;8.80;99.90;;;;;;5075108;28;19912;-79
2022/05/04 03:29:30;;;;;;;;;;;8.60;99.90;;;;;;5075113;28;19912;-78
2022/05/04 03:31:55;;;;;;;;;;;8.40;99.90;;;;;;5075044;28;20398;-79
2022/05/04 03:34:21;;;;;;;;;;;8.40;99.90;;;;;;5074986;28;19904;-78
2022/05/04 03:36:46;;;;;;;;;;;8.80;99.90;;;;;;5075128;28;19966;-77
2022/05/04 03:39:12;;;;;;;;;;;9.00;99.90;;;;;;5056704;28;19951;-79
2022/05/04 03:41:40;;;;;;;;;;;9.10;99.90;;;;;;5075099;28;19908;-78
2022/05/04 03:44:06;;;;;;;;;;;9.30;99.90;;;;;;5056883;28;19904;-79
2022/05/04 03:46:45;;;;;;;;;;;9.60;99.90;;;;;;5074721;28;19927;-76
2022/05/04 03:49:11;;;;;;;;;;;9.50;99.90;;;;;;5074861;28;20254;-77
2022/05/04 03:51:37;;;;;;;;;;;9.60;99.90;;;;;;5074604;28;20357;-79
2022/05/04 03:54:03;;;;;;;;;;;9.60;99.90;;;;;;5074598;28;19965;-77
2022/05/04 03:56:29;;;;;;;;;;;9.40;99.90;;;;;;5074611;28;19905;-79
2022/05/04 03:58:54;;;;;;;;;;;9.50;99.90;;;;;;5074936;28;19908;-79
2022/05/04 04:01:20;;;;;;;;;;;9.50;99.90;;;;;;5074385;28;20387;-78
2022/05/04 04:03:46;;;;;;;;;;;9.40;99.90;;;;;;5074376;28;19912;-77
2022/05/04 04:06:12;;;;;;;;;;;9.30;99.90;;;;;;5074337;28;19904;-77
2022/05/04 04:08:37;;;;;;;;;;;9.20;99.90;;;;;;5074277;28;20003;-78
2022/05/04 04:11:03;;;;;;;;;;;9.30;99.90;;;;;;5074531;28;19958;-78
2022/05/04 04:13:29;;;;;;;;;;;9.00;99.90;;;;;;5074312;28;20289;-79
2022/05/04 04:15:55;;;;;;;;;;;9.00;99.90;;;;;;5074181;28;19912;-79
2022/05/04 04:18:21;;;;;;;;;;;8.90;99.90;;;;;;5074178;28;19905;-78
2022/05/04 04:23:31;;;;;;;;;;;8.80;99.90;;;;;;5074332;28;19995;-77
2022/05/04 04:25:57;;;;;;;;;;;8.80;99.90;;;;;;5056127;28;19931;-77
2022/05/04 04:28:23;;;;;;;;;;;8.70;99.90;;;;;;5074062;28;19958;-77
2022/05/04 04:30:48;;;;;;;;;;;8.80;99.90;;;;;;5074021;28;19999;-77
2022/05/04 04:33:14;;;;;;;;;;;8.70;99.90;;;;;;5074354;28;20386;-77
2022/05/04 04:35:39;;;;;;;;;;;8.70;99.90;;;;;;5073955;28;19927;-77
2022/05/04 04:38:06;;;;;;;;;;;8.70;99.90;;;;;;5073678;28;19955;-78
2022/05/04 04:40:32;;;;;;;;;;;8.90;99.90;;;;;;5055851;28;19988;-77
2022/05/04 04:42:57;;;;;;;;;;;8.80;99.90;;;;;;5073839;28;20412;-79
2022/05/04 04:45:23;;;;;;;;;;;8.80;99.90;;;;;;5073777;28;19912;-78
2022/05/04 04:47:48;;;;;;;;;;;8.90;99.90;;;;;;5055747;28;19912;-76
2022/05/04 04:50:14;;;;;;;;;;;8.70;99.90;;;;;;5073897;28;19939;-78
2022/05/04 04:52:40;;;;;;;;;;;8.80;99.90;;;;;;5073737;28;20356;-79
2022/05/04 04:55:06;;;;;;;;;;;8.90;99.90;;;;;;5073701;28;19911;-77
2022/05/04 04:57:35;;;;;;;;;;;8.90;99.90;;;;;;5073858;28;19926;-77
2022/05/04 05:00:00;;;;;;;;;;;9.20;99.90;;;;;;5073840;28;19909;-80
2022/05/04 05:02:26;;;;;;;;;;;9.40;99.90;;;;;;5073848;28;20365;-79
2022/05/04 05:04:52;;;;;;;;;;;9.30;99.90;;;;;;5073543;28;19955;-78
2022/05/04 05:07:17;;;;;;;;;;;9.30;99.90;;;;;;5073648;28;19904;-77
2022/05/04 05:09:43;;;;;;;;;;;9.30;99.90;;;;;;5073789;28;19909;-79
2022/05/04 05:12:09;;;;;;;;;;;9.30;99.90;;;;;;5073459;28;19953;-79
2022/05/04 05:17:19;;;;;;;;;;;9.40;99.90;;;;;;5077672;28;19958;-78
2022/05/04 05:19:44;;;;;;;;;;;9.50;99.90;;;;;;5077775;28;19904;-77
2022/05/04 05:22:10;;;;;;;;;;;9.60;99.90;;;;;;5077755;28;19905;-79
2022/05/04 05:24:35;;;;;;;;;;;9.60;99.90;;;;;;5077473;28;19910;-78
2022/05/04 05:27:01;;;;;;;;;;;9.60;99.90;;;;;;5077449;28;19909;-78
2022/05/04 05:29:26;;;;;;;;;;;9.80;99.90;;;;;;5059389;28;19905;-79
2022/05/04 05:31:52;;;;;;;;;;;9.80;99.90;;;;;;5077430;28;20448;-76
2022/05/04 05:34:18;;;;;;;;;;;9.90;99.90;;;;;;5077166;28;19908;-77
2022/05/04 05:36:44;;;;;;;;;;;9.80;99.90;;;;;;5059127;28;20297;-76
2022/05/04 05:39:10;;;;;;;;;;;9.80;99.90;;;;;;5077336;28;20272;-76
2022/05/04 05:41:35;;;;;;;;;;;9.80;99.90;;;;;;5059159;28;19905;-77
2022/05/04 05:44:01;;;;;;;;;;;10.00;99.90;;;;;;5059190;28;20015;-77
2022/05/04 05:46:29;;;;;;;;;;;10.40;99.90;;;;;;5077135;28;19905;-77
2022/05/04 05:48:54;;;;;;;;;;;10.50;99.90;;;;;;5077748;28;19972;-77
2022/05/04 05:51:20;;;;;;;;;;;10.50;99.90;;;;;;5078483;28;19946;-78
2022/05/04 05:53:45;;;;;;;;;;;10.60;99.90;;;;;;5077363;28;20010;-80
2022/05/04 05:56:11;;;;;;;;;;;10.70;99.90;;;;;;5077076;28;20078;-78
2022/05/04 05:58:37;;;;;;;;;;;10.60;99.90;;;;;;5076887;28;20379;-78
2022/05/04 06:01:02;;;;;;;;;;;10.50;99.90;;;;;;5076689;28;20367;-77
2022/05/04 06:03:28;;;;;;;;;;;10.70;99.90;;;;;;5076638;28;19912;-77
2022/05/04 06:05:54;;;;;;;;;;;10.80;99.90;;;;;;5058608;28;19904;-78
2022/05/04 06:08:19;;;;;;;;;;;10.80;99.90;;;;;;5076963;28;19916;-79
2022/05/04 06:10:45;;;;;;;;;;;10.70;99.90;;;;;;5076490;28;19940;-79
2022/05/04 06:13:10;;;;;;;;;;;11.00;99.90;;;;;;5076667;28;19908;-78
2022/05/04 06:15:36;;;;;;;;;;;11.20;99.90;;;;;;5076488;28;19916;-78
2022/05/04 06:18:02;;;;;;;;;;;11.10;99.90;;;;;;5076446;28;19905;-77
2022/05/04 06:20:28;;;;;;;;;;;11.30;99.90;;;;;;5076425;28;20360;-79
2022/05/04 06:22:53;;;;;;;;;;;11.50;99.90;;;;;;5076355;28;19908;-77
2022/05/04 06:25:19;;;;;;;;;;;11.80;99.90;;;;;;5076415;28;20390;-79
2022/05/04 06:27:45;;;;;;;;;;;11.90;99.90;;;;;;5075043;28;20365;-78
2022/05/04 06:35:39;;;;;;;;;;;12.10;99.90;;;;;;5076296;28;19962;-77
2022/05/04 06:38:04;;;;;;;;;;;12.20;99.90;;;;;;5057833;28;19916;-78
2022/05/04 06:40:30;;;;;;;;;;;12.40;99.90;;;;;;5076049;28;19911;-78
2022/05/04 06:42:56;;;;;;;;;;;12.70;99.90;;;;;;5075965;28;19944;-80
2022/05/04 06:45:21;;;;;;;;;;;12.90;99.90;;;;;;5057972;28;20352;-78
2022/05/04 06:47:47;;;;;;;;;;;13.20;99.90;;;;;;5075956;28;19904;-78
2022/05/04 06:50:13;;;;;;;;;;;13.50;99.90;;;;;;5075865;28;19916;-79
2022/05/04 06:52:38;;;;;;;;;;;13.50;99.90;;;;;;5057829;28;19916;-78
2022/05/04 06:55:05;;;;;;;;;;;13.50;99.90;;;;;;5075958;28;20042;-77
2022/05/04 06:57:30;;;;;;;;;;;13.70;99.90;;;;;;5076010;28;19951;-79
2022/05/04 06:59:59;;;;;;;;;;;14.10;99.90;;;;;;5057470;28;20371;-78
2022/05/04 07:02:25;;;;;;;;;;;14.30;99.90;;;;;;5075627;28;20341;-76
2022/05/04 07:04:50;;;;;;;;;;;14.50;99.90;;;;;;5075616;28;19939;-78
2022/05/04 07:07:16;;;;;;;;;;;14.80;99.90;;;;;;5057564;28;19904;-76
2022/05/04 07:09:42;;;;;;;;;;;15.10;99.90;;;;;;5075440;28;19994;-77
2022/05/04 07:12:08;;;;;;;;;;;15.00;99.90;;;;;;5075181;28;19909;-76
2022/05/04 07:14:34;;;;;;;;;;;15.40;99.90;;;;;;5075622;28;20291;-78
2022/05/04 07:16:59;;;;;;;;;;;15.20;99.90;;;;;;5075880;28;20375;-79
2022/05/04 07:19:25;;;;;;;;;;;15.40;99.90;;;;;;5057310;28;19905;-78
2022/05/04 07:21:51;;;;;;;;;;;14.80;99.90;;;;;;5075189;28;19905;-79
2022/05/04 07:24:17;;;;;;;;;;;15.40;99.90;;;;;;5075583;28;20361;-81
2022/05/04 07:26:42;;;;;;;;;;;15.80;99.90;;;;;;5057218;28;19905;-77
2022/05/04 07:29:09;;;;;;;;;;;16.60;99.90;;;;;;5057126;28;20280;-78
2022/05/04 07:31:35;;;;;;;;;;;17.20;99.90;;;;;;5075091;28;19911;-78
2022/05/04 07:34:01;;;;;;;;;;;16.70;99.90;;;;;;5074964;28;19908;-78
2022/05/04 07:36:27;;;;;;;;;;;16.80;99.90;;;;;;5075165;28;19987;-79
2022/05/04 07:38:52;;;;;;;;;;;17.40;99.90;;;;;;5056565;28;20377;-77
2022/05/04 07:44:02;;;;;;;;;;;17.40;99.90;;;;;;5074575;28;19918;-78
2022/05/04 07:46:27;;;;;;;;;;;16.90;99.90;;;;;;5056900;28;19995;-79
2022/05/04 07:48:54;;;;;;;;;;;16.70;99.90;;;;;;5056784;28;19908;-77
2022/05/04 07:51:19;;;;;;;;;;;17.30;99.90;;;;;;5074511;28;19908;-79
2022/05/04 07:53:45;;;;;;;;;;;17.50;99.90;;;;;;5074750;28;19958;-79
2022/05/04 07:56:11;;;;;;;;;;;18.40;99.90;;;;;;5074813;28;19911;-81
2022/05/04 07:58:36;;;;;;;;;;;18.70;99.90;;;;;;5074784;28;19912;-78
2022/05/04 08:06:31;;;;;;;;;;;19.20;99.90;;;;;;5074167;28;19927;-78
2022/05/04 08:08:56;;;;;;;;;;;18.80;99.90;;;;;;5074318;28;19904;-81
2022/05/04 08:11:22;;;;;;;;;;;18.90;99.90;;;;;;5074201;28;19905;-78
2022/05/04 08:13:47;;;;;;;;;;;19.80;99.90;;;;;;5074156;28;19966;-79
2022/05/04 08:16:13;;;;;;;;;;;20.70;99.90;;;;;;5074232;28;19908;-78
2022/05/04 08:18:42;;;;;;;;;;;21.00;98.60;;;;;;5074473;28;20290;-77
2022/05/04 08:21:08;;;;;;;;;;;21.30;95.50;;;;;;5074119;28;19954;-78
2022/05/04 08:23:37;;;;;;;;;;;21.60;94.90;;;;;;5074493;28;19943;-80
2022/05/04 08:26:02;;;;;;;;;;;21.80;90.20;;;;;;5056182;28;20284;-81
2022/05/04 08:28:28;;;;;;;;;;;22.20;90.00;;;;;;5074080;28;19905;-78
2022/05/04 08:30:54;;;;;;;;;;;22.30;86.50;;;;;;5074009;28;19905;-80
2022/05/04 08:33:20;;;;;;;;;;;22.50;81.20;;;;;;5073969;28;19908;-78
2022/05/04 08:35:46;;;;;;;;;;;22.40;79.90;;;;;;5073879;28;20035;-79
2022/05/04 08:38:12;;;;;;;;;;;22.90;81.80;;;;;;5052251;28;19952;-79
2022/05/04 08:40:38;;;;;;;;;;;23.10;77.40;;;;;;5053974;28;19984;-77
2022/05/04 08:43:07;;;;;;;;;;;23.70;75.60;;;;;;5053852;28;20373;-80
2022/05/04 08:45:36;;;;;;;;;;;24.20;69.10;;;;;;5052338;28;19904;-79
2022/05/04 08:48:03;;;;;;;;;;;24.30;67.40;;;;;;5053736;28;20324;-78
2022/05/04 08:50:29;;;;;;;;;;;24.60;66.20;;;;;;5052953;28;19909;-77
2022/05/04 08:52:54;;;;;;;;;;;24.60;62.50;;;;;;5053974;28;19963;-79
2022/05/04 08:55:21;;;;;;;;;;;25.10;62.60;;;;;;5053778;28;19905;-78
2022/05/04 08:57:47;;;;;;;;;;;25.90;60.90;;;;;;5054150;28;19999;-77
2022/05/04 09:00:13;;;;;;;;;;;26.20;57.00;;;;;;5053522;28;19912;-78
2022/05/04 09:02:39;;;;;;;;;;;26.40;57.40;;;;;;5053787;28;19905;-80
2022/05/04 09:05:24;;;;;;;;;;;27.00;56.50;;;;;;5053647;28;19937;-79
2022/05/04 09:07:51;;;;;;;;;;;27.30;54.90;;;;;;5053756;28;20471;-77
2022/05/04 09:10:19;;;;;;;;;;;27.50;53.20;;;;;;5053829;28;19904;-79
2022/05/04 09:12:46;;;;;;;;;;;28.10;52.00;;;;;;5053507;28;19923;-79
2022/05/04 09:15:23;;;;;;;;;;;28.00;49.70;;;;;;5053458;28;19911;-78
2022/05/04 09:18:09;;;;;;;;;;;28.50;50.60;;;;;;5053435;28;19912;-78
2022/05/04 09:20:53;;;;;;;;;;;28.60;48.70;;;;;;5052894;28;20281;-77
2022/05/04 09:23:19;;;;;;;;;;;28.80;48.90;;;;;;5053441;28;19905;-79
2022/05/04 09:25:47;;;;;;;;;;;28.90;48.30;;;;;;5053395;28;19911;-79
2022/05/04 09:28:14;;;;;;;;;;;29.10;48.30;;;;;;5053404;28;20400;-80
2022/05/04 09:30:50;;;;;;;;;;;29.40;48.50;;;;;;5053358;28;19905;-79
2022/05/04 09:33:16;;;;;;;;;;;30.40;48.00;;;;;;5053232;28;20439;-79
2022/05/04 09:35:42;;;;;;;;;;;30.80;46.60;;;;;;5053450;28;20308;-80
2022/05/04 09:46:31;;;;;;;;;;;31.90;45.10;;;;;;5073347;28;20015;-78
2022/05/04 09:48:58;;;;;;;;;;;33.50;44.40;;;;;;5073144;28;19921;-79
2022/05/04 09:51:27;;;;;;;;;;;34.40;42.50;;;;;;5073164;28;20383;-79
2022/05/04 09:53:53;;;;;;;;;;;35.30;41.70;;;;;;5073126;28;19947;-78
2022/05/04 09:56:19;;;;;;;;;;;36.20;40.70;;;;;;5073118;28;20368;-79
2022/05/04 09:58:45;;;;;;;;;;;37.20;39.00;;;;;;5073106;28;20387;-80
2022/05/04 10:01:11;;;;;;;;;;;37.90;37.60;;;;;;5073996;28;19904;-81
2022/05/04 10:03:37;;;;;;;;;;;39.00;37.10;;;;;;5077023;28;19951;-77
2022/05/04 10:06:03;;;;;;;;;;;39.50;36.40;;;;;;5076697;28;20308;-77
2022/05/04 10:08:29;;;;;;;;;;;39.90;36.40;;;;;;5076783;28;19957;-77
2022/05/04 10:10:55;;;;;;;;;;;40.50;35.30;;;;;;5076567;28;20006;-78
2022/05/04 10:13:21;;;;;;;;;;;41.50;34.50;;;;;;5076576;28;19940;-77
2022/05/04 10:15:50;;;;;;;;;;;42.20;34.60;;;;;;5076537;28;19927;-77
2022/05/04 10:18:27;;;;;;;;;;;42.00;33.80;;;;;;5076652;28;20375;-77
2022/05/04 10:21:01;;;;;;;;;;;42.70;33.70;;;;;;5076486;28;19911;-78
2022/05/04 10:23:28;;;;;;;;;;;42.70;32.90;;;;;;5076821;28;19915;-76
2022/05/04 10:25:57;;;;;;;;;;;43.30;33.20;;;;;;5076339;28;19919;-77
2022/05/04 10:28:22;;;;;;;;;;;43.70;32.40;;;;;;5076360;28;19904;-78
2022/05/04 10:30:51;;;;;;;;;;;42.20;32.60;;;;;;5076392;28;19912;-77
2022/05/04 10:33:18;;;;;;;;;;;42.10;32.70;;;;;;5076208;28;20353;-78
2022/05/04 10:35:45;;;;;;;;;;;42.50;32.50;;;;;;5076178;28;20295;-78
2022/05/04 10:38:15;;;;;;;;;;;42.90;31.80;;;;;;5075908;28;19916;-78
2022/05/04 10:40:50;;;;;;;;;;;43.00;32.00;;;;;;5076245;28;20029;-77
2022/05/04 10:43:18;;;;;;;;;;;43.20;31.10;;;;;;5075946;28;20322;-76
2022/05/04 10:45:45;;;;;;;;;;;44.10;31.90;;;;;;5076065;28;19966;-78
2022/05/04 10:48:20;;;;;;;;;;;44.40;31.90;;;;;;5076023;28;19904;-77
2022/05/04 10:50:49;;;;;;;;;;;44.00;32.20;;;;;;5075958;28;19904;-78
2022/05/04 10:53:19;;;;;;;;;;;43.90;31.60;;;;;;5075890;28;19908;-78
2022/05/04 10:56:05;;;;;;;;;;;44.70;32.20;;;;;;5076015;28;19911;-76
2022/05/04 10:58:35;;;;;;;;;;;44.70;30.80;;;;;;5075221;28;19905;-78
2022/05/04 11:01:05;;;;;;;;;;;44.40;31.60;;;;;;5057842;28;19961;-78
2022/05/04 11:03:32;;;;;;;;;;;44.50;31.70;;;;;;5075681;28;20360;-78
2022/05/04 11:05:58;;;;;;;;;;;45.10;31.00;;;;;;5075470;28;19911;-79
2022/05/04 11:08:25;;;;;;;;;;;43.10;31.80;;;;;;5057719;28;19909;-76
2022/05/04 11:10:52;;;;;;;;;;;42.80;31.90;;;;;;5075587;28;20288;-76
2022/05/04 11:13:18;;;;;;;;;;;43.00;32.30;;;;;;5056805;28;19904;-78
2022/05/04 11:15:51;;;;;;;;;;;42.50;31.80;;;;;;5075591;28;20376;-76
2022/05/04 11:18:20;;;;;;;;;;;42.40;31.80;;;;;;5075569;28;19912;-78
2022/05/04 11:20:46;;;;;;;;;;;42.60;31.50;;;;;;5075531;28;19939;-77
2022/05/04 11:23:12;;;;;;;;;;;42.40;31.80;;;;;;5075183;28;19912;-77
2022/05/04 11:25:38;;;;;;;;;;;43.00;31.40;;;;;;5075272;28;19954;-77
2022/05/04 11:28:03;;;;;;;;;;;43.40;31.80;;;;;;5075282;28;19908;-76
2022/05/04 11:30:30;;;;;;;;;;;43.30;31.80;;;;;;5075426;28;20353;-76
2022/05/04 11:32:56;;;;;;;;;;;42.40;32.00;;;;;;5057528;28;20362;-78
2022/05/04 11:35:23;;;;;;;;;;;42.30;32.40;;;;;;5075167;28;19955;-77
2022/05/04 11:37:49;;;;;;;;;;;42.80;32.40;;;;;;5074899;28;19916;-78
2022/05/04 11:40:16;;;;;;;;;;;44.00;31.50;;;;;;5074979;28;20415;-77
2022/05/04 11:42:43;;;;;;;;;;;43.90;30.60;;;;;;5075244;28;19916;-77
2022/05/04 11:45:10;;;;;;;;;;;44.50;31.20;;;;;;5075055;28;20300;-78
2022/05/04 11:47:36;;;;;;;;;;;44.70;31.00;;;;;;5074951;28;20288;-77
2022/05/04 11:50:04;;;;;;;;;;;45.10;30.30;;;;;;5057357;28;19905;-77
2022/05/04 11:52:30;;;;;;;;;;;44.90;30.80;;;;;;5076373;28;19904;-78
2022/05/04 11:55:00;;;;;;;;;;;45.50;30.00;;;;;;5075652;28;19911;-79
2022/05/04 11:57:25;;;;;;;;;;;45.50;30.20;;;;;;5057395;28;19904;-78
2022/05/04 11:59:51;;;;;;;;;;;46.90;29.90;;;;;;5075467;28;19911;-77
2022/05/04 12:02:16;;;;;;;;;;;47.00;29.70;;;;;;5075405;28;19915;-78
2022/05/04 12:04:42;;;;;;;;;;;47.20;29.50;;;;;;5074637;28;19995;-78
2022/05/04 12:07:08;;;;;;;;;;;47.40;29.50;;;;;;5074710;28;19908;-79
2022/05/04 12:09:34;;;;;;;;;;;48.20;29.30;;;;;;5056408;28;19913;-76
2022/05/04 12:12:00;;;;;;;;;;;48.70;28.90;;;;;;5074363;28;20058;-79
2022/05/04 12:14:29;;;;;;;;;;;48.60;29.20;;;;;;5074258;28;20003;-76
2022/05/04 12:16:54;;;;;;;;;;;49.60;29.30;;;;;;5074654;28;19927;-77
2022/05/04 12:19:20;;;;;;;;;;;48.80;28.90;;;;;;5074621;28;20357;-77
2022/05/04 12:21:46;;;;;;;;;;;48.90;28.50;;;;;;5074372;28;19904;-78
2022/05/04 12:24:13;;;;;;;;;;;49.50;28.20;;;;;;5073995;28;20376;-77
2022/05/04 12:26:39;;;;;;;;;;;49.30;28.40;;;;;;5074048;28;19905;-77
2022/05/04 12:34:33;;;;;;;;;;;37.30;34.20;;;;;;5074225;28;19962;-77
2022/05/04 12:36:59;;;;;;;;;;;43.10;30.80;;;;;;5073769;28;19916;-77
2022/05/04 12:39:25;;;;;;;;;;;45.80;29.50;;;;;;5074326;28;19949;-77
2022/05/04 12:41:55;;;;;;;;;;;47.20;28.60;;;;;;5073983;28;19995;-78
2022/05/04 12:44:20;;;;;;;;;;;46.50;28.50;;;;;;5073775;28;19947;-77
2022/05/04 12:46:52;;;;;;;;;;;42.00;28.80;;;;;;5074143;28;19962;-76
2022/05/04 12:49:20;;;;;;;;;;;38.10;31.10;;;;;;5074420;28;20284;-76
2022/05/04 12:51:45;;;;;;;;;;;34.40;33.30;;;;;;5056121;28;19904;-76
2022/05/04 12:54:11;;;;;;;;;;;31.80;34.90;;;;;;5074246;28;19911;-79
2022/05/04 12:56:46;;;;;;;;;;;30.60;36.50;;;;;;5074061;28;19911;-79
2022/05/04 12:59:12;;;;;;;;;;;30.10;37.70;;;;;;5074503;28;20280;-79
2022/05/04 13:01:38;;;;;;;;;;;29.60;39.10;;;;;;5056093;28;20408;-80
2022/05/04 13:04:04;;;;;;;;;;;29.70;39.30;;;;;;5074106;28;20015;-78
2022/05/04 13:06:29;;;;;;;;;;;29.70;40.00;;;;;;5074101;28;19904;-79
2022/05/04 13:08:55;;;;;;;;;;;29.20;39.70;;;;;;5056237;28;20391;-79
2022/05/04 13:11:22;;;;;;;;;;;28.90;40.00;;;;;;5055647;28;19955;-78
2022/05/04 13:13:48;;;;;;;;;;;28.70;40.70;;;;;;5073974;28;19999;-79
2022/05/04 13:16:15;;;;;;;;;;;28.50;40.70;;;;;;5073835;28;19997;-79
2022/05/04 13:18:41;;;;;;;;;;;28.40;41.10;;;;;;5073978;28;19904;-79
2022/05/04 13:21:07;;;;;;;;;;;29.00;40.70;;;;;;5073777;28;20249;-77
2022/05/04 13:23:32;;;;;;;;;;;34.20;37.70;;;;;;5055409;28;19943;-77
2022/05/04 13:25:58;;;;;;;;;;;38.00;33.80;;;;;;5073587;28;20353;-78
2022/05/04 13:28:24;;;;;;;;;;;36.60;34.00;;;;;;5073687;28;19916;-77
2022/05/04 13:30:50;;;;;;;;;;;36.50;34.40;;;;;;5073488;28;19943;-76
2022/05/04 13:33:15;;;;;;;;;;;38.50;33.60;;;;;;5073898;28;19950;-76
2022/05/04 13:35:41;;;;;;;;;;;38.60;31.40;;;;;;5073661;28;20323;-77
2022/05/04 13:38:06;;;;;;;;;;;38.70;31.40;;;;;;5077214;28;19924;-78
2022/05/04 13:40:33;;;;;;;;;;;38.50;31.20;;;;;;5077427;28;19911;-77
2022/05/04 13:42:59;;;;;;;;;;;38.20;32.40;;;;;;5077235;28;20048;-76
2022/05/04 13:45:25;;;;;;;;;;;38.00;32.40;;;;;;5077444;28;19950;-79
2022/05/04 13:47:51;;;;;;;;;;;37.50;31.90;;;;;;5077730;28;20403;-76
2022/05/04 13:53:16;;;;;;;;;;;36.80;31.70;;;;;;5077304;28;19911;-76
2022/05/04 13:55:42;;;;;;;;;;;35.30;33.00;;;;;;5078056;28;19904;-76
2022/05/04 13:58:07;;;;;;;;;;;35.60;33.00;;;;;;5077789;28;20269;-76
2022/05/04 14:00:33;;;;;;;;;;;35.90;32.80;;;;;;5077133;28;20415;-77
2022/05/04 14:02:59;;;;;;;;;;;35.90;33.30;;;;;;5077394;28;19908;-77
2022/05/04 14:05:25;;;;;;;;;;;35.50;32.70;;;;;;5077222;28;20424;-75
2022/05/04 14:07:52;;;;;;;;;;;35.00;33.20;;;;;;5077526;28;20046;-77
2022/05/04 14:10:18;;;;;;;;;;;35.20;34.30;;;;;;5077743;28;20388;-77
2022/05/04 14:12:43;;;;;;;;;;;35.50;33.80;;;;;;5077547;28;19909;-77
2022/05/04 14:15:09;;;;;;;;;;;35.60;33.40;;;;;;5052052;28;20269;-77
2022/05/04 14:17:35;;;;;;;;;;;35.40;33.10;;;;;;5057447;28;19911;-77
2022/05/04 14:20:00;;;;;;;;;;;34.10;32.90;;;;;;5076785;28;19911;-77
2022/05/04 14:22:26;;;;;;;;;;;32.70;34.80;;;;;;5074855;28;19911;-77
2022/05/04 14:24:52;;;;;;;;;;;33.00;34.70;;;;;;5076597;28;20280;-77
2022/05/04 14:27:17;;;;;;;;;;;32.80;34.80;;;;;;5076048;28;20310;-77
2022/05/04 14:29:43;;;;;;;;;;;33.10;35.40;;;;;;5076269;28;19905;-77
2022/05/04 14:32:09;;;;;;;;;;;33.70;33.60;;;;;;5074083;28;19911;-77
2022/05/04 14:34:35;;;;;;;;;;;34.40;33.40;;;;;;5076114;28;20542;-77
2022/05/04 14:37:01;;;;;;;;;;;34.20;33.50;;;;;;5075813;28;19917;-76
2022/05/04 14:39:27;;;;;;;;;;;34.70;33.60;;;;;;5076019;28;20368;-76
2022/05/04 14:41:53;;;;;;;;;;;35.00;33.10;;;;;;5072916;28;19905;-76
2022/05/04 14:44:19;;;;;;;;;;;35.00;33.40;;;;;;5075851;28;19909;-76
2022/05/04 14:46:44;;;;;;;;;;;34.40;33.80;;;;;;5075736;28;19904;-76
2022/05/04 14:49:10;;;;;;;;;;;34.40;34.50;;;;;;5074629;28;19991;-75
2022/05/04 14:51:37;;;;;;;;;;;34.10;34.30;;;;;;5072578;28;19920;-75
2022/05/04 14:54:03;;;;;;;;;;;33.90;34.50;;;;;;5075595;28;19904;-76
2022/05/04 14:56:28;;;;;;;;;;;34.10;34.90;;;;;;5075599;28;19904;-75